FABL/BFN METAR and TAF weather

Enter ICAO airport designator
Station Type Date Time Source
FABL METAR 2020/04/08 21:00 UTC NOAA

FABL 082100Z AUTO 03005KT 9999 ///////// 13/11 Q1023


Station Type Date Time Source
FABL Decoded METAR 2020/04/08 21:00 UTC NOAA

Bloemfontein, Bloemfontein Airport, South Africa (FABL) 29-06S 026-18E 1400M
Apr 08, 2020 - 05:00 PM EDT / 2020.04.08 2100 UTC
Wind: from the NNE (030 degrees) at 6 MPH (5 KT):0
Visibility: greater than 7 mile(s):0
Temperature: 55 F (13 C)
Dew Point: 51 F (11 C)
Relative Humidity: 87%
Pressure (altimeter): 30.21 in. Hg (1023 hPa)
ob: FABL 082100Z AUTO 03005KT 9999 ///////// 13/11 Q1023
cycle: 21

Station Type Date Time Source
FABL TAF 2020/04/08 18:03 UTC NOAA

TAF TAF FABL 081600Z 0818/0918 VRB03KT CAVOK TX23/0912Z TN06/0904Z
BECMG 0902/0904 02012KT 9999 SCT020
TEMPO 0905/0907 BKN010

Example: see airport list